Time,TemperatureF,DewpointF,PressureIn,WindDirection,WindDirectionDegrees,WindSpeedMPH,WindSpeedGustMPH,Humidity,HourlyPrecipIn,Conditions,Clouds,dailyrainin,SoftwareType,DateUTC
2013-08-26 00:03:00,69.4,68.2,30.26,SSW,197,0.0,0.0,96,0.00,,,0.00,Wunderground v.1.15,2013-08-26 05:03:00,
2013-08-26 00:08:00,69.3,67.8,30.26,SSW,197,0.0,0.0,95,0.00,,,0.00,Wunderground v.1.15,2013-08-26 05:08:00,
2013-08-26 00:14:00,69.3,68.1,30.26,SSW,197,0.0,0.0,96,0.00,,,0.00,Wunderground v.1.15,2013-08-26 05:14:00,
2013-08-26 00:19:00,69.3,68.1,30.26,SSW,197,0.0,0.0,96,0.00,,,0.00,Wunderground v.1.15,2013-08-26 05:19:00,
2013-08-26 00:24:00,69.2,68.0,30.26,SSW,197,0.0,0.0,96,0.00,,,0.00,Wunderground v.1.15,2013-08-26 05:24:00,
2013-08-26 00:29:00,69.0,67.8,30.25,SSW,197,0.0,0.0,96,0.00,,,0.00,Wunderground v.1.15,2013-08-26 05:29:00,
2013-08-26 00:35:00,68.9,67.7,30.25,SSW,197,0.0,0.0,96,0.00,,,0.00,Wunderground v.1.15,2013-08-26 05:35:00,
2013-08-26 00:41:00,68.8,67.6,30.25,South,170,0.0,1.0,96,0.00,,,0.00,Wunderground v.1.15,2013-08-26 05:41:00,
2013-08-26 00:46:00,68.8,67.6,30.25,South,169,0.0,1.0,96,0.00,,,0.00,Wunderground v.1.15,2013-08-26 05:46:00,
2013-08-26 00:52:00,68.7,67.5,30.25,South,169,0.0,0.0,96,0.00,,,0.00,Wunderground v.1.15,2013-08-26 05:52:00,
2013-08-26 00:58:00,68.6,67.4,30.25,South,169,0.0,0.0,96,0.00,,,0.00,Wunderground v.1.15,2013-08-26 05:58:00,
2013-08-26 01:03:00,68.8,67.9,30.25,South,169,0.0,0.0,97,0.00,,,0.00,Wunderground v.1.15,2013-08-26 06:03:00,
2013-08-26 01:08:00,68.8,67.6,30.25,South,169,0.0,0.0,96,0.00,,,0.00,Wunderground v.1.15,2013-08-26 06:08:00,
2013-08-26 01:13:00,68.6,67.4,30.25,South,169,0.0,0.0,96,0.00,,,0.00,Wunderground v.1.15,2013-08-26 06:13:00,
2013-08-26 01:18:00,68.5,67.3,30.25,South,169,0.0,0.0,96,0.00,,,0.00,Wunderground v.1.15,2013-08-26 06:18:00,
2013-08-26 01:24:00,68.5,67.6,30.25,South,169,0.0,0.0,97,0.00,,,0.00,Wunderground v.1.15,2013-08-26 06:24:00,
2013-08-26 01:29:00,68.6,67.7,30.25,South,169,0.0,0.0,97,0.00,,,0.00,Wunderground v.1.15,2013-08-26 06:29:00,
2013-08-26 01:34:00,68.6,67.7,30.25,South,169,0.0,0.0,97,0.00,,,0.00,Wunderground v.1.15,2013-08-26 06:34:00,
2013-08-26 01:39:00,68.6,67.7,30.25,South,169,0.0,0.0,97,0.00,,,0.00,Wunderground v.1.15,2013-08-26 06:39:00,
2013-08-26 01:44:00,68.5,67.6,30.25,South,169,0.0,0.0,97,0.00,,,0.00,Wunderground v.1.15,2013-08-26 06:44:00,
2013-08-26 01:50:00,68.3,67.4,30.24,South,169,0.0,0.0,97,0.00,,,0.00,Wunderground v.1.15,2013-08-26 06:50:00,
2013-08-26 01:56:00,68.1,66.9,30.24,South,169,0.0,0.0,96,0.00,,,0.00,Wunderground v.1.15,2013-08-26 06:56:00,
2013-08-26 02:02:00,68.0,66.8,30.24,South,169,0.0,0.0,96,0.00,,,0.00,Wunderground v.1.15,2013-08-26 07:02:00,
2013-08-26 02:07:00,67.9,66.7,30.24,South,169,0.0,0.0,96,0.00,,,0.00,Wunderground v.1.15,2013-08-26 07:07:00,
2013-08-26 02:13:00,67.8,66.9,30.24,South,169,0.0,0.0,97,0.00,,,0.00,Wunderground v.1.15,2013-08-26 07:13:00,
2013-08-26 02:18:00,67.7,66.8,30.24,South,169,0.0,0.0,97,0.00,,,0.00,Wunderground v.1.15,2013-08-26 07:18:00,
2013-08-26 02:24:00,67.6,66.4,30.24,South,169,0.0,0.0,96,0.00,,,0.00,Wunderground v.1.15,2013-08-26 07:24:00,
2013-08-26 02:29:00,67.5,66.3,30.24,South,169,0.0,0.0,96,0.00,,,0.00,Wunderground v.1.15,2013-08-26 07:29:00,
2013-08-26 02:34:00,67.4,66.2,30.24,South,169,0.0,0.0,96,0.00,,,0.00,Wunderground v.1.15,2013-08-26 07:34:00,
2013-08-26 02:39:00,67.3,66.4,30.24,South,169,0.0,0.0,97,0.00,,,0.00,Wunderground v.1.15,2013-08-26 07:39:00,
2013-08-26 02:45:00,67.3,66.4,30.24,South,169,0.0,0.0,97,0.00,,,0.00,Wunderground v.1.15,2013-08-26 07:45:00,
2013-08-26 02:51:00,67.3,66.4,30.24,South,169,0.0,0.0,97,0.00,,,0.00,Wunderground v.1.15,2013-08-26 07:51:00,
2013-08-26 02:57:00,67.3,66.4,30.24,South,169,0.0,0.0,97,0.00,,,0.00,Wunderground v.1.15,2013-08-26 07:57:00,
2013-08-26 03:02:00,67.3,66.4,30.24,South,169,0.0,0.0,97,0.00,,,0.00,Wunderground v.1.15,2013-08-26 08:02:00,
2013-08-26 03:07:00,67.3,66.4,30.24,South,169,0.0,0.0,97,0.00,,,0.00,Wunderground v.1.15,2013-08-26 08:07:00,
2013-08-26 03:13:00,67.2,66.3,30.24,South,169,0.0,0.0,97,0.00,,,0.00,Wunderground v.1.15,2013-08-26 08:13:00,
2013-08-26 03:18:00,67.2,66.3,30.24,South,169,0.0,0.0,97,0.00,,,0.00,Wunderground v.1.15,2013-08-26 08:18:00,
2013-08-26 03:24:00,67.1,66.2,30.24,South,169,0.0,1.0,97,0.00,,,0.00,Wunderground v.1.15,2013-08-26 08:24:00,
2013-08-26 03:30:00,67.1,66.2,30.24,South,169,0.0,0.0,97,0.00,,,0.00,Wunderground v.1.15,2013-08-26 08:30:00,
2013-08-26 03:35:00,67.0,66.1,30.24,South,169,0.0,0.0,97,0.00,,,0.00,Wunderground v.1.15,2013-08-26 08:35:00,
2013-08-26 03:40:00,66.9,66.0,30.24,South,169,0.0,0.0,97,0.00,,,0.00,Wunderground v.1.15,2013-08-26 08:40:00,
2013-08-26 03:46:00,66.9,66.0,30.24,South,169,0.0,0.0,97,0.00,,,0.00,Wunderground v.1.15,2013-08-26 08:46:00,
2013-08-26 03:52:00,66.7,65.8,30.23,South,169,0.0,0.0,97,0.00,,,0.00,Wunderground v.1.15,2013-08-26 08:52:00,
2013-08-26 03:58:00,66.5,65.6,30.23,South,169,0.0,0.0,97,0.00,,,0.00,Wunderground v.1.15,2013-08-26 08:58:00,
2013-08-26 04:04:00,66.6,65.7,30.23,South,169,0.0,0.0,97,0.00,,,0.00,Wunderground v.1.15,2013-08-26 09:04:00,
2013-08-26 04:10:00,66.7,65.8,30.23,South,169,0.0,0.0,97,0.00,,,0.00,Wunderground v.1.15,2013-08-26 09:10:00,
2013-08-26 04:15:00,66.7,65.8,30.23,South,169,0.0,0.0,97,0.00,,,0.00,Wunderground v.1.15,2013-08-26 09:15:00,
2013-08-26 04:20:00,66.7,65.8,30.23,South,169,0.0,0.0,97,0.00,,,0.00,Wunderground v.1.15,2013-08-26 09:20:00,
2013-08-26 04:25:00,66.7,65.8,30.23,South,169,0.0,0.0,97,0.00,,,0.00,Wunderground v.1.15,2013-08-26 09:25:00,
2013-08-26 04:30:00,66.8,66.2,30.24,South,169,0.0,0.0,98,0.00,,,0.00,Wunderground v.1.15,2013-08-26 09:30:00,
2013-08-26 04:35:00,66.7,65.8,30.24,South,169,0.0,0.0,97,0.00,,,0.00,Wunderground v.1.15,2013-08-26 09:35:00,
2013-08-26 04:40:00,66.7,65.8,30.24,South,169,0.0,0.0,97,0.00,,,0.00,Wunderground v.1.15,2013-08-26 09:40:00,
2013-08-26 04:45:00,66.7,65.8,30.24,South,169,0.0,0.0,97,0.00,,,0.00,Wunderground v.1.15,2013-08-26 09:45:00,
2013-08-26 04:51:00,66.7,65.8,30.24,South,169,0.0,0.0,97,0.00,,,0.00,Wunderground v.1.15,2013-08-26 09:51:00,
2013-08-26 04:56:00,66.6,65.7,30.24,South,169,0.0,0.0,97,0.00,,,0.00,Wunderground v.1.15,2013-08-26 09:56:00,
2013-08-26 05:02:00,66.4,65.5,30.24,South,169,0.0,0.0,97,0.00,,,0.00,Wunderground v.1.15,2013-08-26 10:02:00,
2013-08-26 05:08:00,66.3,65.4,30.24,South,169,0.0,0.0,97,0.00,,,0.00,Wunderground v.1.15,2013-08-26 10:08:00,
2013-08-26 05:13:00,66.4,65.5,30.24,South,169,0.0,0.0,97,0.00,,,0.00,Wunderground v.1.15,2013-08-26 10:13:00,
2013-08-26 05:19:00,66.3,65.4,30.24,South,169,0.0,0.0,97,0.00,,,0.00,Wunderground v.1.15,2013-08-26 10:19:00,
2013-08-26 05:25:00,66.3,65.4,30.24,South,169,0.0,0.0,97,0.00,,,0.00,Wunderground v.1.15,2013-08-26 10:25:00,
2013-08-26 05:31:00,66.2,65.3,30.24,South,169,0.0,0.0,97,0.00,,,0.00,Wunderground v.1.15,2013-08-26 10:31:00,
2013-08-26 05:37:00,65.8,64.6,30.24,South,169,0.0,0.0,96,0.00,,,0.00,Wunderground v.1.15,2013-08-26 10:37:00,
2013-08-26 05:42:00,65.6,64.4,30.25,South,169,0.0,0.0,96,0.00,,,0.00,Wunderground v.1.15,2013-08-26 10:42:00,
2013-08-26 05:48:00,65.4,64.2,30.25,South,169,0.0,0.0,96,0.00,,,0.00,Wunderground v.1.15,2013-08-26 10:48:00,
2013-08-26 05:53:00,65.3,64.4,30.25,South,169,0.0,0.0,97,0.00,,,0.00,Wunderground v.1.15,2013-08-26 10:53:00,
2013-08-26 05:59:00,65.3,64.4,30.25,South,169,0.0,0.0,97,0.00,,,0.00,Wunderground v.1.15,2013-08-26 10:59:00,
2013-08-26 06:05:00,65.2,64.3,30.25,South,169,0.0,0.0,97,0.00,,,0.00,Wunderground v.1.15,2013-08-26 11:05:00,
2013-08-26 06:11:00,65.3,64.4,30.26,South,169,0.0,0.0,97,0.00,,,0.00,Wunderground v.1.15,2013-08-26 11:11:00,
2013-08-26 06:16:00,65.4,64.5,30.26,South,169,0.0,0.0,97,0.00,,,0.00,Wunderground v.1.15,2013-08-26 11:16:00,
2013-08-26 06:21:00,65.5,64.6,30.26,South,169,0.0,0.0,97,0.00,,,0.00,Wunderground v.1.15,2013-08-26 11:21:00,
2013-08-26 06:27:00,65.9,65.3,30.26,South,169,0.0,0.0,98,0.00,,,0.00,Wunderground v.1.15,2013-08-26 11:27:00,
2013-08-26 06:32:00,65.9,65.3,30.26,South,169,0.0,0.0,98,0.00,,,0.00,Wunderground v.1.15,2013-08-26 11:32:00,
2013-08-26 06:39:00,65.9,65.0,30.26,South,169,0.0,0.0,97,0.00,,,0.00,Wunderground v.1.15,2013-08-26 11:39:00,
2013-08-26 06:44:00,66.1,65.5,30.26,South,169,0.0,0.0,98,0.00,,,0.00,Wunderground v.1.15,2013-08-26 11:44:00,
2013-08-26 06:49:00,66.3,65.7,30.27,South,169,0.0,0.0,98,0.00,,,0.00,Wunderground v.1.15,2013-08-26 11:49:00,
2013-08-26 06:55:00,66.6,66.0,30.27,South,169,0.0,0.0,98,0.00,,,0.00,Wunderground v.1.15,2013-08-26 11:55:00,
2013-08-26 07:00:00,66.8,66.2,30.27,South,169,0.0,0.0,98,0.00,,,0.00,Wunderground v.1.15,2013-08-26 12:00:00,
2013-08-26 07:06:00,67.0,66.1,30.27,South,169,0.0,0.0,97,0.00,,,0.00,Wunderground v.1.15,2013-08-26 12:06:00,
2013-08-26 07:12:00,67.4,66.5,30.27,South,169,0.0,0.0,97,0.00,,,0.00,Wunderground v.1.15,2013-08-26 12:12:00,
2013-08-26 07:18:00,67.7,66.8,30.27,South,169,0.0,0.0,97,0.00,,,0.00,Wunderground v.1.15,2013-08-26 12:18:00,
2013-08-26 07:24:00,68.0,67.1,30.27,South,169,0.0,0.0,97,0.00,,,0.00,Wunderground v.1.15,2013-08-26 12:24:00,
2013-08-26 07:30:00,68.6,67.7,30.27,South,169,0.0,0.0,97,0.00,,,0.00,Wunderground v.1.15,2013-08-26 12:30:00,
2013-08-26 07:35:00,69.1,67.9,30.27,South,169,0.0,0.0,96,0.00,,,0.00,Wunderground v.1.15,2013-08-26 12:35:00,
2013-08-26 07:41:00,69.7,68.2,30.27,South,169,0.0,0.0,95,0.00,,,0.00,Wunderground v.1.15,2013-08-26 12:41:00,
2013-08-26 07:47:00,70.5,68.7,30.28,South,169,0.0,0.0,94,0.00,,,0.00,Wunderground v.1.15,2013-08-26 12:47:00,
2013-08-26 07:52:00,70.8,68.4,30.28,South,170,0.0,0.0,92,0.00,,,0.00,Wunderground v.1.15,2013-08-26 12:52:00,
2013-08-26 07:57:00,70.7,67.9,30.27,SSW,198,0.0,1.0,91,0.00,,,0.00,Wunderground v.1.15,2013-08-26 12:57:00,
2013-08-26 08:03:00,70.9,68.5,30.28,SSW,198,0.0,0.0,92,0.00,,,0.00,Wunderground v.1.15,2013-08-26 13:03:00,
2013-08-26 08:09:00,71.1,68.3,30.27,WSW,248,0.0,2.0,91,0.00,,,0.00,Wunderground v.1.15,2013-08-26 13:09:00,
2013-08-26 08:15:00,71.2,68.1,30.28,West,280,1.0,1.0,90,0.00,,,0.00,Wunderground v.1.15,2013-08-26 13:15:00,
2013-08-26 08:21:00,71.5,69.1,30.28,West,280,0.0,0.0,92,0.00,,,0.00,Wunderground v.1.15,2013-08-26 13:21:00,
2013-08-26 08:26:00,71.7,68.6,30.28,West,270,0.0,1.0,90,0.00,,,0.00,Wunderground v.1.15,2013-08-26 13:26:00,
2013-08-26 08:32:00,72.3,69.2,30.28,West,269,1.0,1.0,90,0.00,,,0.00,Wunderground v.1.15,2013-08-26 13:32:00,
2013-08-26 08:37:00,72.7,69.3,30.28,West,266,2.0,3.0,89,0.00,,,0.00,Wunderground v.1.15,2013-08-26 13:37:00,
2013-08-26 08:43:00,73.2,69.1,30.28,WSW,252,2.0,2.0,87,0.00,,,0.00,Wunderground v.1.15,2013-08-26 13:43:00,
2013-08-26 08:49:00,73.8,69.3,30.27,West,262,2.0,3.0,86,0.00,,,0.00,Wunderground v.1.15,2013-08-26 13:49:00,
2013-08-26 08:55:00,74.5,69.7,30.27,WSW,251,2.0,4.0,85,0.00,,,0.00,Wunderground v.1.15,2013-08-26 13:55:00,
2013-08-26 09:00:00,74.9,69.7,30.28,West,278,2.0,2.0,84,0.00,,,0.00,Wunderground v.1.15,2013-08-26 14:00:00,
2013-08-26 09:06:00,75.4,69.9,30.28,West,269,2.0,2.0,83,0.00,,,0.00,Wunderground v.1.15,2013-08-26 14:06:00,
2013-08-26 09:12:00,76.0,70.1,30.28,West,278,2.0,4.0,82,0.00,,,0.00,Wunderground v.1.15,2013-08-26 14:12:00,
2013-08-26 09:18:00,76.2,68.8,30.28,West,273,3.0,4.0,78,0.00,,,0.00,Wunderground v.1.15,2013-08-26 14:18:00,
2013-08-26 09:23:00,76.7,70.1,30.28,WNW,297,3.0,3.0,80,0.00,,,0.00,Wunderground v.1.15,2013-08-26 14:23:00,
2013-08-26 09:29:00,77.3,69.1,30.28,West,281,3.0,5.0,76,0.00,,,0.00,Wunderground v.1.15,2013-08-26 14:29:00,
2013-08-26 09:34:00,77.6,69.8,30.28,West,275,4.0,5.0,77,0.00,,,0.00,Wunderground v.1.15,2013-08-26 14:34:00,
2013-08-26 09:39:00,78.2,69.6,30.28,WNW,284,4.0,5.0,75,0.00,,,0.00,Wunderground v.1.15,2013-08-26 14:39:00,
2013-08-26 09:45:00,78.7,70.1,30.28,SW,235,4.0,4.0,75,0.00,,,0.00,Wunderground v.1.15,2013-08-26 14:45:00,
2013-08-26 09:51:00,79.2,70.2,30.28,South,191,4.0,4.0,74,0.00,,,0.00,Wunderground v.1.15,2013-08-26 14:51:00,
2013-08-26 09:57:00,79.6,70.2,30.28,West,279,4.0,7.0,73,0.00,,,0.00,Wunderground v.1.15,2013-08-26 14:57:00,
2013-08-26 10:02:00,79.6,70.2,30.28,WSW,247,3.0,6.0,73,0.00,,,0.00,Wunderground v.1.15,2013-08-26 15:02:00,
2013-08-26 10:08:00,80.0,70.2,30.28,West,270,4.0,6.0,72,0.00,,,0.00,Wunderground v.1.15,2013-08-26 15:08:00,
2013-08-26 10:14:00,80.1,70.3,30.28,West,268,3.0,5.0,72,0.00,,,0.00,Wunderground v.1.15,2013-08-26 15:14:00,
2013-08-26 10:20:00,80.7,70.8,30.28,WNW,286,4.0,6.0,72,0.00,,,0.00,Wunderground v.1.15,2013-08-26 15:20:00,
2013-08-26 10:26:00,81.0,71.1,30.28,WSW,254,4.0,6.0,72,0.00,,,0.00,Wunderground v.1.15,2013-08-26 15:26:00,
2013-08-26 10:32:00,81.2,70.9,30.28,WNW,283,4.0,5.0,71,0.00,,,0.00,Wunderground v.1.15,2013-08-26 15:32:00,
2013-08-26 10:37:00,81.5,71.6,30.28,West,267,4.0,5.0,72,0.00,,,0.00,Wunderground v.1.15,2013-08-26 15:37:00,
2013-08-26 10:42:00,82.2,71.4,30.28,WSW,252,3.0,3.0,70,0.00,,,0.00,Wunderground v.1.15,2013-08-26 15:42:00,
2013-08-26 10:48:00,82.0,71.7,30.28,West,270,3.0,5.0,71,0.00,,,0.00,Wunderground v.1.15,2013-08-26 15:48:00,
2013-08-26 10:53:00,81.7,71.4,30.28,West,279,4.0,5.0,71,0.00,,,0.00,Wunderground v.1.15,2013-08-26 15:53:00,
2013-08-26 10:58:00,81.2,70.5,30.28,WSW,244,4.0,5.0,70,0.00,,,0.00,Wunderground v.1.15,2013-08-26 15:58:00,
2013-08-26 11:04:00,81.0,70.3,30.28,SW,234,3.0,4.0,70,0.00,,,0.00,Wunderground v.1.15,2013-08-26 16:04:00,
2013-08-26 11:09:00,81.4,71.1,30.27,WSW,258,3.0,4.0,71,0.00,,,0.00,Wunderground v.1.15,2013-08-26 16:09:00,
2013-08-26 11:15:00,82.3,72.0,30.27,WSW,248,4.0,7.0,71,0.00,,,0.00,Wunderground v.1.15,2013-08-26 16:15:00,
2013-08-26 11:21:00,83.0,71.3,30.27,West,280,3.0,4.0,68,0.00,,,0.00,Wunderground v.1.15,2013-08-26 16:21:00,
2013-08-26 11:27:00,82.7,71.1,30.27,WNW,286,4.0,7.0,68,0.00,,,0.00,Wunderground v.1.15,2013-08-26 16:27:00,
2013-08-26 11:32:00,82.7,71.9,30.27,SW,231,4.0,5.0,70,0.00,,,0.00,Wunderground v.1.15,2013-08-26 16:32:00,
2013-08-26 11:37:00,83.1,72.3,30.27,SW,224,4.0,6.0,70,0.00,,,0.00,Wunderground v.1.15,2013-08-26 16:37:00,
2013-08-26 11:43:00,83.5,72.3,30.27,WSW,239,3.0,4.0,69,0.00,,,0.00,Wunderground v.1.15,2013-08-26 16:43:00,
2013-08-26 11:48:00,83.4,72.2,30.26,West,269,3.0,4.0,69,0.00,,,0.00,Wunderground v.1.15,2013-08-26 16:48:00,
2013-08-26 11:54:00,83.7,71.6,30.26,West,266,4.0,6.0,67,0.00,,,0.00,Wunderground v.1.15,2013-08-26 16:54:00,
2013-08-26 11:59:00,83.9,71.8,30.26,West,267,4.0,9.0,67,0.00,,,0.00,Wunderground v.1.15,2013-08-26 16:59:00,
2013-08-26 12:05:00,83.7,72.0,30.26,WSW,238,5.0,7.0,68,0.00,,,0.00,Wunderground v.1.15,2013-08-26 17:05:00,
2013-08-26 12:11:00,82.9,71.7,30.26,West,268,5.0,5.0,69,0.00,,,0.00,Wunderground v.1.15,2013-08-26 17:11:00,
2013-08-26 12:16:00,82.8,71.2,30.25,West,265,4.0,5.0,68,0.00,,,0.00,Wunderground v.1.15,2013-08-26 17:16:00,
2013-08-26 12:21:00,82.3,71.1,30.25,West,266,4.0,5.0,69,0.00,,,0.00,Wunderground v.1.15,2013-08-26 17:21:00,
2013-08-26 12:26:00,82.1,71.3,30.25,SW,233,3.0,5.0,70,0.00,,,0.00,Wunderground v.1.15,2013-08-26 17:26:00,
2013-08-26 12:31:00,82.6,72.2,30.25,South,190,2.0,2.0,71,0.00,,,0.00,Wunderground v.1.15,2013-08-26 17:31:00,
2013-08-26 12:36:00,83.8,70.8,30.25,WSW,239,3.0,7.0,65,0.00,,,0.00,Wunderground v.1.15,2013-08-26 17:36:00,
2013-08-26 12:41:00,84.2,71.2,30.25,West,261,5.0,5.0,65,0.00,,,0.00,Wunderground v.1.15,2013-08-26 17:41:00,
2013-08-26 12:46:00,84.4,71.3,30.25,West,272,4.0,7.0,65,0.00,,,0.00,Wunderground v.1.15,2013-08-26 17:46:00,
2013-08-26 12:51:00,84.1,71.1,30.24,West,268,4.0,5.0,65,0.00,,,0.00,Wunderground v.1.15,2013-08-26 17:51:00,
2013-08-26 12:57:00,83.5,71.4,30.24,WSW,254,4.0,6.0,67,0.00,,,0.00,Wunderground v.1.15,2013-08-26 17:57:00,
2013-08-26 13:03:00,82.8,71.2,30.24,West,263,4.0,4.0,68,0.00,,,0.00,Wunderground v.1.15,2013-08-26 18:03:00,
2013-08-26 13:08:00,82.7,70.6,30.24,West,264,4.0,5.0,67,0.00,,,0.00,Wunderground v.1.15,2013-08-26 18:08:00,
2013-08-26 13:13:00,83.8,71.7,30.24,WSW,256,4.0,7.0,67,0.00,,,0.00,Wunderground v.1.15,2013-08-26 18:13:00,
2013-08-26 13:18:00,84.6,72.4,30.23,West,259,5.0,7.0,67,0.00,,,0.00,Wunderground v.1.15,2013-08-26 18:18:00,
2013-08-26 13:23:00,84.9,71.4,30.23,WSW,244,4.0,7.0,64,0.00,,,0.00,Wunderground v.1.15,2013-08-26 18:23:00,
2013-08-26 13:29:00,85.5,72.4,30.23,WSW,246,4.0,7.0,65,0.00,,,0.00,Wunderground v.1.15,2013-08-26 18:29:00,
2013-08-26 13:34:00,85.5,72.4,30.23,West,260,4.0,5.0,65,0.00,,,0.00,Wunderground v.1.15,2013-08-26 18:34:00,
2013-08-26 13:39:00,85.6,72.0,30.23,SW,220,4.0,5.0,64,0.00,,,0.00,Wunderground v.1.15,2013-08-26 18:39:00,
2013-08-26 13:44:00,85.7,71.7,30.23,West,259,4.0,5.0,63,0.00,,,0.00,Wunderground v.1.15,2013-08-26 18:44:00,
2013-08-26 13:50:00,85.3,72.2,30.22,WSW,244,4.0,4.0,65,0.00,,,0.00,Wunderground v.1.15,2013-08-26 18:50:00,
2013-08-26 13:55:00,85.6,72.9,30.22,West,273,4.0,4.0,66,0.00,,,0.00,Wunderground v.1.15,2013-08-26 18:55:00,
2013-08-26 14:00:00,86.1,73.0,30.22,WSW,249,3.0,4.0,65,0.00,,,0.00,Wunderground v.1.15,2013-08-26 19:00:00,
2013-08-26 14:06:00,85.7,72.6,30.21,SSW,195,3.0,5.0,65,0.00,,,0.00,Wunderground v.1.15,2013-08-26 19:06:00,
2013-08-26 14:12:00,85.7,73.0,30.21,South,190,2.0,7.0,66,0.00,,,0.00,Wunderground v.1.15,2013-08-26 19:12:00,
2013-08-26 14:18:00,86.3,74.5,30.20,WSW,252,3.0,7.0,68,0.00,,,0.00,Wunderground v.1.15,2013-08-26 19:18:00,
2013-08-26 14:24:00,87.0,73.3,30.20,WSW,241,3.0,7.0,64,0.00,,,0.00,Wunderground v.1.15,2013-08-26 19:24:00,
2013-08-26 14:30:00,87.3,73.2,30.20,SW,221,4.0,4.0,63,0.00,,,0.00,Wunderground v.1.15,2013-08-26 19:30:00,
2013-08-26 14:35:00,87.0,72.9,30.20,SW,234,3.0,4.0,63,0.00,,,0.00,Wunderground v.1.15,2013-08-26 19:35:00,
2013-08-26 14:41:00,86.7,72.1,30.20,SSW,211,2.0,3.0,62,0.00,,,0.00,Wunderground v.1.15,2013-08-26 19:41:00,
2013-08-26 14:46:00,86.7,72.1,30.19,SW,222,3.0,4.0,62,0.00,,,0.00,Wunderground v.1.15,2013-08-26 19:46:00,
2013-08-26 14:52:00,87.3,73.2,30.19,SW,215,3.0,5.0,63,0.00,,,0.00,Wunderground v.1.15,2013-08-26 19:52:00,
2013-08-26 14:57:00,87.5,71.4,30.19,SW,225,3.0,5.0,59,0.00,,,0.00,Wunderground v.1.15,2013-08-26 19:57:00,
2013-08-26 15:03:00,86.8,72.2,30.19,WSW,238,3.0,5.0,62,0.00,,,0.00,Wunderground v.1.15,2013-08-26 20:03:00,
2013-08-26 15:09:00,85.7,72.6,30.19,SSW,198,4.0,5.0,65,0.00,,,0.00,Wunderground v.1.15,2013-08-26 20:09:00,
2013-08-26 15:14:00,86.6,73.0,30.19,WSW,250,3.0,4.0,64,0.00,,,0.00,Wunderground v.1.15,2013-08-26 20:14:00,
2013-08-26 15:19:00,86.7,72.6,30.18,SW,233,4.0,7.0,63,0.00,,,0.00,Wunderground v.1.15,2013-08-26 20:19:00,
2013-08-26 15:26:00,87.0,72.4,30.18,South,186,3.0,4.0,62,0.00,,,0.00,Wunderground v.1.15,2013-08-26 20:26:00,
2013-08-26 15:31:00,87.2,71.6,30.18,SW,232,2.0,3.0,60,0.00,,,0.00,Wunderground v.1.15,2013-08-26 20:31:00,
2013-08-26 15:37:00,86.7,71.6,30.18,SSW,211,3.0,4.0,61,0.00,,,0.00,Wunderground v.1.15,2013-08-26 20:37:00,
2013-08-26 15:42:00,85.9,71.4,30.18,WSW,254,3.0,3.0,62,0.00,,,0.00,Wunderground v.1.15,2013-08-26 20:42:00,
2013-08-26 15:47:00,86.3,71.3,30.18,SSW,199,3.0,4.0,61,0.00,,,0.00,Wunderground v.1.15,2013-08-26 20:47:00,
2013-08-26 15:53:00,86.0,71.5,30.17,SSW,192,3.0,5.0,62,0.00,,,0.00,Wunderground v.1.15,2013-08-26 20:53:00,
2013-08-26 15:59:00,85.3,71.7,30.17,South,173,2.0,5.0,64,0.00,,,0.00,Wunderground v.1.15,2013-08-26 20:59:00,
2013-08-26 16:05:00,85.3,71.3,30.17,SW,225,3.0,5.0,63,0.00,,,0.00,Wunderground v.1.15,2013-08-26 21:05:00,
2013-08-26 16:10:00,85.8,72.2,30.17,SSE,159,3.0,3.0,64,0.00,,,0.00,Wunderground v.1.15,2013-08-26 21:10:00,
2013-08-26 16:16:00,86.5,72.4,30.17,SSW,211,3.0,5.0,63,0.00,,,0.00,Wunderground v.1.15,2013-08-26 21:16:00,
2013-08-26 16:21:00,86.7,72.1,30.16,SE,143,2.0,5.0,62,0.00,,,0.00,Wunderground v.1.15,2013-08-26 21:21:00,
2013-08-26 16:26:00,86.8,73.6,30.16,WSW,258,2.0,5.0,65,0.00,,,0.00,Wunderground v.1.15,2013-08-26 21:26:00,
2013-08-26 16:31:00,87.0,71.9,30.16,SSW,207,3.0,5.0,61,0.00,,,0.00,Wunderground v.1.15,2013-08-26 21:31:00,
2013-08-26 16:36:00,87.0,71.4,30.16,WSW,245,4.0,6.0,60,0.00,,,0.00,Wunderground v.1.15,2013-08-26 21:36:00,
2013-08-26 16:42:00,86.9,71.8,30.16,WSW,240,4.0,6.0,61,0.00,,,0.00,Wunderground v.1.15,2013-08-26 21:42:00,
2013-08-26 16:47:00,86.8,72.2,30.16,WSW,237,4.0,6.0,62,0.00,,,0.00,Wunderground v.1.15,2013-08-26 21:47:00,
2013-08-26 16:53:00,87.1,72.5,30.15,SW,217,4.0,5.0,62,0.00,,,0.00,Wunderground v.1.15,2013-08-26 21:53:00,
2013-08-26 16:59:00,87.0,71.9,30.16,West,271,3.0,6.0,61,0.00,,,0.00,Wunderground v.1.15,2013-08-26 21:59:00,
2013-08-26 17:05:00,86.7,72.6,30.15,SSW,210,4.0,6.0,63,0.00,,,0.00,Wunderground v.1.15,2013-08-26 22:05:00,
2013-08-26 17:11:00,86.9,72.3,30.15,SW,235,3.0,6.0,62,0.00,,,0.00,Wunderground v.1.15,2013-08-26 22:11:00,
2013-08-26 17:17:00,86.3,72.2,30.15,SW,234,3.0,6.0,63,0.00,,,0.00,Wunderground v.1.15,2013-08-26 22:17:00,
2013-08-26 17:22:00,86.3,71.7,30.15,WSW,250,3.0,4.0,62,0.00,,,0.00,Wunderground v.1.15,2013-08-26 22:22:00,
2013-08-26 17:28:00,86.2,72.1,30.15,SSW,213,3.0,4.0,63,0.00,,,0.00,Wunderground v.1.15,2013-08-26 22:28:00,
2013-08-26 17:33:00,86.1,72.0,30.15,SW,224,3.0,4.0,63,0.00,,,0.00,Wunderground v.1.15,2013-08-26 22:33:00,
2013-08-26 17:38:00,86.0,71.9,30.15,SSW,197,3.0,4.0,63,0.00,,,0.00,Wunderground v.1.15,2013-08-26 22:38:00,
2013-08-26 17:43:00,86.0,72.4,30.15,SW,225,2.0,3.0,64,0.00,,,0.00,Wunderground v.1.15,2013-08-26 22:43:00,
2013-08-26 17:49:00,85.8,72.7,30.15,West,263,2.0,4.0,65,0.00,,,0.00,Wunderground v.1.15,2013-08-26 22:49:00,
2013-08-26 17:54:00,85.5,71.9,30.14,West,262,4.0,6.0,64,0.00,,,0.00,Wunderground v.1.15,2013-08-26 22:54:00,
2013-08-26 17:59:00,85.2,72.1,30.14,WSW,239,4.0,6.0,65,0.00,,,0.00,Wunderground v.1.15,2013-08-26 22:59:00,
2013-08-26 18:04:00,84.9,72.3,30.14,West,259,3.0,4.0,66,0.00,,,0.00,Wunderground v.1.15,2013-08-26 23:04:00,
2013-08-26 18:09:00,84.6,72.0,30.14,SW,232,3.0,5.0,66,0.00,,,0.00,Wunderground v.1.15,2013-08-26 23:09:00,
2013-08-26 18:15:00,84.4,72.7,30.14,WSW,240,3.0,3.0,68,0.00,,,0.00,Wunderground v.1.15,2013-08-26 23:15:00,
2013-08-26 18:20:00,84.2,72.5,30.14,SW,236,3.0,3.0,68,0.00,,,0.00,Wunderground v.1.15,2013-08-26 23:20:00,
2013-08-26 18:26:00,83.9,72.6,30.14,WSW,248,2.0,3.0,69,0.00,,,0.00,Wunderground v.1.15,2013-08-26 23:26:00,
2013-08-26 18:31:00,83.5,72.7,30.14,WSW,240,2.0,2.0,70,0.00,,,0.00,Wunderground v.1.15,2013-08-26 23:31:00,
2013-08-26 18:36:00,83.1,72.7,30.14,WSW,254,2.0,4.0,71,0.00,,,0.00,Wunderground v.1.15,2013-08-26 23:36:00,
2013-08-26 18:42:00,82.5,72.6,30.14,WSW,254,2.0,2.0,72,0.00,,,0.00,Wunderground v.1.15,2013-08-26 23:42:00,
2013-08-26 18:47:00,82.1,72.6,30.14,WSW,254,1.0,2.0,73,0.00,,,0.00,Wunderground v.1.15,2013-08-26 23:47:00,
2013-08-26 18:53:00,81.6,72.1,30.14,SW,231,1.0,3.0,73,0.00,,,0.00,Wunderground v.1.15,2013-08-26 23:53:00,
2013-08-26 18:58:00,81.3,72.2,30.14,SW,231,1.0,3.0,74,0.00,,,0.00,Wunderground v.1.15,2013-08-26 23:58:00,
2013-08-26 19:04:00,80.9,72.6,30.14,SW,231,1.0,1.0,76,0.00,,,0.00,Wunderground v.1.15,2013-08-27 00:04:00,
2013-08-26 19:09:00,80.5,72.6,30.14,SW,231,1.0,1.0,77,0.00,,,0.00,Wunderground v.1.15,2013-08-27 00:09:00,
2013-08-26 19:15:00,80.1,72.2,30.14,SW,231,1.0,1.0,77,0.00,,,0.00,Wunderground v.1.15,2013-08-27 00:15:00,
2013-08-26 19:21:00,79.7,72.2,30.14,SW,231,0.0,0.0,78,0.00,,,0.00,Wunderground v.1.15,2013-08-27 00:21:00,
2013-08-26 19:26:00,79.5,72.4,30.14,SW,231,0.0,0.0,79,0.00,,,0.00,Wunderground v.1.15,2013-08-27 00:26:00,
2013-08-26 19:31:00,79.3,72.6,30.14,SW,231,0.0,0.0,80,0.00,,,0.00,Wunderground v.1.15,2013-08-27 00:31:00,
2013-08-26 19:36:00,79.1,72.4,30.14,SW,231,0.0,0.0,80,0.00,,,0.00,Wunderground v.1.15,2013-08-27 00:36:00,
2013-08-26 19:41:00,78.8,72.5,30.14,SW,231,0.0,0.0,81,0.00,,,0.00,Wunderground v.1.15,2013-08-27 00:41:00,
2013-08-26 19:47:00,78.5,72.5,30.14,SW,231,0.0,0.0,82,0.00,,,0.00,Wunderground v.1.15,2013-08-27 00:47:00,
2013-08-26 19:53:00,78.2,72.6,30.14,SW,231,0.0,0.0,83,0.00,,,0.00,Wunderground v.1.15,2013-08-27 00:53:00,
2013-08-26 19:59:00,77.6,72.0,30.14,SW,231,0.0,0.0,83,0.00,,,0.00,Wunderground v.1.15,2013-08-27 00:59:00,
2013-08-26 20:05:00,77.0,71.8,30.14,SW,231,0.0,0.0,84,0.00,,,0.00,Wunderground v.1.15,2013-08-27 01:05:00,
2013-08-26 20:11:00,76.4,71.6,30.14,SW,231,0.0,0.0,85,0.00,,,0.00,Wunderground v.1.15,2013-08-27 01:11:00,
2013-08-26 20:17:00,76.0,71.8,30.14,SW,231,0.0,0.0,87,0.00,,,0.00,Wunderground v.1.15,2013-08-27 01:17:00,
2013-08-26 20:23:00,75.6,71.8,30.14,SW,231,0.0,0.0,88,0.00,,,0.00,Wunderground v.1.15,2013-08-27 01:23:00,
2013-08-26 20:28:00,75.4,71.6,30.14,SW,231,0.0,0.0,88,0.00,,,0.00,Wunderground v.1.15,2013-08-27 01:28:00,
2013-08-26 20:33:00,75.2,71.7,30.14,SW,231,0.0,0.0,89,0.00,,,0.00,Wunderground v.1.15,2013-08-27 01:33:00,
2013-08-26 20:38:00,75.0,71.5,30.14,SW,231,0.0,0.0,89,0.00,,,0.00,Wunderground v.1.15,2013-08-27 01:38:00,
2013-08-26 20:43:00,74.9,71.8,30.15,SW,231,0.0,0.0,90,0.00,,,0.00,Wunderground v.1.15,2013-08-27 01:43:00,
2013-08-26 20:48:00,74.7,71.6,30.15,SW,231,0.0,0.0,90,0.00,,,0.00,Wunderground v.1.15,2013-08-27 01:48:00,
2013-08-26 20:54:00,74.5,71.7,30.15,SW,231,0.0,0.0,91,0.00,,,0.00,Wunderground v.1.15,2013-08-27 01:54:00,
2013-08-26 20:59:00,74.4,71.6,30.15,SW,231,0.0,0.0,91,0.00,,,0.00,Wunderground v.1.15,2013-08-27 01:59:00,
2013-08-26 21:04:00,74.1,71.6,30.15,SW,231,0.0,0.0,92,0.00,,,0.00,Wunderground v.1.15,2013-08-27 02:04:00,
2013-08-26 21:10:00,73.9,71.4,30.15,SW,231,0.0,0.0,92,0.00,,,0.00,Wunderground v.1.15,2013-08-27 02:10:00,
2013-08-26 21:16:00,73.8,71.3,30.15,SW,231,0.0,0.0,92,0.00,,,0.00,Wunderground v.1.15,2013-08-27 02:16:00,
2013-08-26 21:21:00,73.5,71.0,30.15,SW,231,0.0,0.0,92,0.00,,,0.00,Wunderground v.1.15,2013-08-27 02:21:00,
2013-08-26 21:26:00,73.1,70.6,30.15,SW,231,0.0,0.0,92,0.00,,,0.00,Wunderground v.1.15,2013-08-27 02:26:00,
2013-08-26 21:34:00,73.1,71.3,30.15,SW,231,0.0,0.0,94,0.00,,,0.00,Wunderground v.1.15,2013-08-27 02:34:00,
2013-08-26 21:40:00,73.2,71.4,30.15,SW,231,0.0,0.0,94,0.00,,,0.00,Wunderground v.1.15,2013-08-27 02:40:00,
2013-08-26 21:46:00,73.0,70.5,30.15,SW,231,0.0,0.0,92,0.00,,,0.00,Wunderground v.1.15,2013-08-27 02:46:00,
2013-08-26 21:51:00,72.8,70.7,30.15,SW,231,0.0,0.0,93,0.00,,,0.00,Wunderground v.1.15,2013-08-27 02:51:00,
2013-08-26 21:56:00,72.9,71.1,30.15,SW,231,0.0,0.0,94,0.00,,,0.00,Wunderground v.1.15,2013-08-27 02:56:00,
2013-08-26 22:02:00,73.0,71.2,30.15,SW,231,0.0,0.0,94,0.00,,,0.00,Wunderground v.1.15,2013-08-27 03:02:00,
2013-08-26 22:07:00,73.0,71.5,30.15,SW,231,0.0,0.0,95,0.00,,,0.00,Wunderground v.1.15,2013-08-27 03:07:00,
2013-08-26 22:12:00,73.0,71.5,30.15,SW,231,0.0,0.0,95,0.00,,,0.00,Wunderground v.1.15,2013-08-27 03:12:00,
2013-08-26 22:18:00,72.9,71.4,30.15,SW,231,0.0,0.0,95,0.00,,,0.00,Wunderground v.1.15,2013-08-27 03:18:00,
2013-08-26 22:24:00,72.9,71.1,30.15,SW,231,0.0,0.0,94,0.00,,,0.00,Wunderground v.1.15,2013-08-27 03:24:00,
2013-08-26 22:29:00,72.9,71.1,30.15,SW,231,0.0,0.0,94,0.00,,,0.00,Wunderground v.1.15,2013-08-27 03:29:00,
2013-08-26 22:34:00,72.9,71.1,30.14,SW,231,0.0,0.0,94,0.00,,,0.00,Wunderground v.1.15,2013-08-27 03:34:00,
2013-08-26 22:39:00,72.8,71.0,30.14,SW,231,0.0,0.0,94,0.00,,,0.00,Wunderground v.1.15,2013-08-27 03:39:00,
2013-08-26 22:44:00,72.7,70.9,30.14,SW,231,0.0,0.0,94,0.00,,,0.00,Wunderground v.1.15,2013-08-27 03:44:00,
2013-08-26 22:49:00,72.6,71.1,30.14,SW,231,0.0,0.0,95,0.00,,,0.00,Wunderground v.1.15,2013-08-27 03:49:00,
2013-08-26 22:55:00,72.3,70.8,30.14,SW,231,0.0,0.0,95,0.00,,,0.00,Wunderground v.1.15,2013-08-27 03:55:00,
2013-08-26 23:00:00,72.1,70.6,30.14,SW,231,0.0,0.0,95,0.00,,,0.00,Wunderground v.1.15,2013-08-27 04:00:00,
2013-08-26 23:01:00,72.1,70.6,30.14,SW,231,0.0,0.0,95,0.00,,,0.00,Wunderground v.1.15,2013-08-27 04:01:00,
2013-08-26 23:02:00,72.1,70.6,30.14,SW,231,0.0,0.0,95,0.00,,,0.00,Wunderground v.1.15,2013-08-27 04:02:00,
2013-08-26 23:05:00,72.0,70.5,30.14,SW,231,0.0,1.0,95,0.00,,,0.00,Wunderground v.1.15,2013-08-27 04:05:00,
2013-08-26 23:08:00,71.9,70.4,30.14,SW,231,0.0,1.0,95,0.00,,,0.00,Wunderground v.1.15,2013-08-27 04:08:00,
2013-08-26 23:10:00,71.8,70.3,30.14,SW,231,0.0,0.0,95,0.00,,,0.00,Wunderground v.1.15,2013-08-27 04:10:00,
2013-08-26 23:16:00,71.7,70.2,30.14,SW,231,0.0,0.0,95,0.00,,,0.00,Wunderground v.1.15,2013-08-27 04:16:00,
2013-08-26 23:22:00,71.8,70.3,30.14,SW,231,0.0,0.0,95,0.00,,,0.00,Wunderground v.1.15,2013-08-27 04:22:00,
2013-08-26 23:27:00,71.9,70.1,30.14,SW,231,0.0,0.0,94,0.00,,,0.00,Wunderground v.1.15,2013-08-27 04:27:00,
2013-08-26 23:33:00,71.9,69.8,30.14,SW,231,0.0,0.0,93,0.00,,,0.00,Wunderground v.1.15,2013-08-27 04:33:00,
2013-08-26 23:38:00,71.9,69.8,30.14,SW,231,0.0,0.0,93,0.00,,,0.00,Wunderground v.1.15,2013-08-27 04:38:00,
2013-08-26 23:43:00,71.9,69.8,30.14,SW,231,0.0,0.0,93,0.00,,,0.00,Wunderground v.1.15,2013-08-27 04:43:00,
2013-08-26 23:49:00,72.0,69.5,30.14,SW,231,0.0,0.0,92,0.00,,,0.00,Wunderground v.1.15,2013-08-27 04:49:00,
2013-08-26 23:55:00,71.9,69.4,30.14,SW,231,0.0,0.0,92,0.00,,,0.00,Wunderground v.1.15,2013-08-27 04:55:00,